Time;durP1;ratioP1;P1;durP2;ratioP2;P2;SDS_P1;SDS_P2;PMS_P1;PMS_P2;Temp;Humidity;BMP_temperature;BMP_pressure;BME280_temperature;BME280_humidity;BME280_pressure;Samples;Min_cycle;Max_cycle;Signal;HPM_P1;HPM_P2
2023/04/07 00:02:18;;;;;;;17.20;6.47;;;;;;;41.28;37.81;100848.50;6129754;23;20905;-81
2023/04/07 00:04:44;;;;;;;25.40;9.87;;;;;;;41.33;37.46;100842.91;6129608;23;20408;-81
2023/04/07 00:07:10;;;;;;;19.90;6.97;;;;;;;41.21;37.46;100838.16;6129970;23;20184;-83
2023/04/07 00:09:38;;;;;;;16.80;7.40;;;;;;;41.10;37.52;100836.94;6156388;23;20378;-82
2023/04/07 00:12:04;;;;;;;25.87;10.13;;;;;;;41.50;37.09;100859.13;6129294;23;20898;-82
2023/04/07 00:14:30;;;;;;;17.40;8.20;;;;;;;41.55;36.64;100847.22;6129958;23;20882;-80
2023/04/07 00:16:56;;;;;;;22.93;7.87;;;;;;;41.42;36.53;100842.84;6115015;23;20450;-81
2023/04/07 00:19:22;;;;;;;33.47;8.47;;;;;;;41.44;35.22;100838.66;6100622;23;20154;-80
2023/04/07 00:21:48;;;;;;;20.37;6.97;;;;;;;41.35;35.25;100832.47;6100266;23;20414;-81
2023/04/07 00:24:14;;;;;;;18.20;7.80;;;;;;;41.33;35.01;100846.44;6100061;23;20177;-82
2023/04/07 00:26:40;;;;;;;34.20;8.10;;;;;;;41.54;33.76;100849.16;6099825;23;20154;-82
2023/04/07 00:29:06;;;;;;;26.53;7.97;;;;;;;41.53;33.69;100844.03;6100145;23;20154;-83
2023/04/07 00:31:31;;;;;;;18.40;7.10;;;;;;;41.26;34.31;100837.16;6100283;23;20424;-83
2023/04/07 00:33:57;;;;;;;24.30;8.33;;;;;;;41.65;34.50;100833.22;6099740;23;20496;-81
2023/04/07 00:39:26;;;;;;;23.60;7.47;;;;;;;41.88;34.75;100814.63;6126266;23;20445;-80
2023/04/07 00:41:52;;;;;;;20.73;6.83;;;;;;;42.13;33.71;100832.66;6100233;23;20934;-82
2023/04/07 00:44:18;;;;;;;21.20;9.40;;;;;;;41.86;33.92;100814.94;6099595;23;20382;-81
2023/04/07 00:46:46;;;;;;;15.43;8.37;;;;;;;42.24;33.19;100819.41;6100611;23;20386;-81
2023/04/07 00:49:12;;;;;;;21.20;11.17;;;;;;;42.31;33.65;100805.22;6099563;23;20181;-84
2023/04/07 00:51:38;;;;;;;24.60;12.17;;;;;;;42.38;34.29;100809.00;6100442;23;20468;-81
2023/04/07 00:54:05;;;;;;;38.40;25.00;;;;;;;42.43;34.36;100809.91;6099414;23;20449;-81
2023/04/07 00:56:31;;;;;;;36.87;26.03;;;;;;;42.37;34.08;100806.59;6099277;23;20382;-81
2023/04/07 00:58:57;;;;;;;35.23;23.27;;;;;;;42.29;33.99;100781.00;6100003;23;20700;-81
2023/04/07 01:02:03;;;;;;;30.60;18.97;;;;;;;42.38;33.94;100773.53;6099612;23;20396;-81
2023/04/07 01:04:29;;;;;;;65.17;48.07;;;;;;;42.45;33.50;100789.34;6100292;23;20389;-81
2023/04/07 01:07:03;;;;;;;120.93;92.30;;;;;;;42.39;33.42;100777.84;6099864;23;20416;-80
2023/04/07 01:09:37;;;;;;;121.03;93.20;;;;;;;42.45;33.11;100777.63;6100240;23;20889;-81
2023/04/07 01:12:15;;;;;;;56.17;36.17;;;;;;;42.50;33.39;100782.88;6099895;23;20421;-82
2023/04/07 01:14:53;;;;;;;23.20;13.63;;;;;;;42.51;33.42;100776.28;6100025;23;20792;-81
2023/04/07 01:17:24;;;;;;;12.90;9.17;;;;;;;42.45;33.80;100778.44;6100182;23;20453;-82
2023/04/07 01:20:07;;;;;;;37.50;18.13;;;;;;;42.43;34.12;100779.91;6101731;23;20389;-81
2023/04/07 01:22:45;;;;;;;23.03;11.10;;;;;;;42.54;33.71;100767.41;6100130;23;20505;-81
2023/04/07 01:25:35;;;;;;;25.97;8.43;;;;;;;42.57;33.73;100769.47;6100367;23;20389;-81
2023/04/07 01:28:02;;;;;;;26.03;14.10;;;;;;;42.68;33.51;100759.72;6100543;23;20398;-80
2023/04/07 01:30:30;;;;;;;20.80;8.80;;;;;;;42.61;33.48;100762.22;6100241;23;20386;-81
2023/04/07 01:32:58;;;;;;;23.33;10.70;;;;;;;42.59;33.06;100750.84;6076850;23;20491;-81
2023/04/07 01:35:27;;;;;;;26.57;8.83;;;;;;;42.61;32.91;100760.28;6100041;23;20417;-81
2023/04/07 01:37:54;;;;;;;38.70;17.90;;;;;;;42.70;33.03;100754.72;6126042;23;20385;-82
2023/04/07 01:40:22;;;;;;;23.10;11.30;;;;;;;42.59;33.23;100753.56;6100131;23;20806;-83
2023/04/07 01:42:50;;;;;;;25.53;10.43;;;;;;;42.52;33.06;100743.22;6099603;23;20752;-82
2023/04/07 01:45:18;;;;;;;37.67;18.07;;;;;;;42.47;32.99;100745.38;6100212;23;20394;-82
2023/04/07 01:47:45;;;;;;;32.63;17.10;;;;;;;42.48;33.28;100744.22;6100095;23;20402;-82
2023/04/07 01:50:12;;;;;;;49.50;24.27;;;;;;;42.58;33.62;100750.06;6099621;23;20406;-79
2023/04/07 01:52:39;;;;;;;44.60;14.57;;;;;;;42.58;33.87;100749.25;6100057;23;20449;-81
2023/04/07 01:55:06;;;;;;;56.03;26.00;;;;;;;42.54;34.08;100751.88;6100180;23;20414;-81
2023/04/07 01:57:32;;;;;;;47.30;20.10;;;;;;;42.37;34.07;100761.06;6098982;23;20859;-81
2023/04/07 01:59:58;;;;;;;44.30;21.77;;;;;;;42.50;33.98;100750.16;6100132;23;20387;-81
2023/04/07 02:02:24;;;;;;;39.80;21.63;;;;;;;42.51;34.31;100751.75;6100030;23;20382;-82
2023/04/07 02:04:55;;;;;;;58.73;25.43;;;;;;;42.54;34.10;100751.03;6099948;23;20385;-81
2023/04/07 02:07:35;;;;;;;44.30;20.47;;;;;;;42.51;33.86;100763.44;6100587;23;20386;-82
2023/04/07 02:10:04;;;;;;;43.20;22.07;;;;;;;42.61;33.51;100764.97;6098450;23;20417;-83
2023/04/07 02:12:34;;;;;;;31.50;14.00;;;;;;;42.47;33.83;100762.50;6101646;23;20569;-83
2023/04/07 02:15:00;;;;;;;51.77;23.67;;;;;;;42.57;33.70;100761.28;6101699;23;20406;-84
2023/04/07 02:17:28;;;;;;;58.60;22.50;;;;;;;42.53;33.81;100750.25;6101189;23;20528;-83
2023/04/07 02:19:57;;;;;;;54.50;26.30;;;;;;;42.49;33.65;100754.81;6102075;23;20878;-82
2023/04/07 02:22:23;;;;;;;58.13;25.50;;;;;;;42.60;33.65;100755.16;6101470;23;20415;-81
2023/04/07 02:24:49;;;;;;;53.90;32.10;;;;;;;42.52;33.71;100748.66;6101210;23;20464;-79
2023/04/07 02:27:15;;;;;;;46.70;23.37;;;;;;;42.42;34.31;100745.59;6101551;23;20445;-81
2023/04/07 02:29:40;;;;;;;49.60;24.70;;;;;;;42.54;33.76;100746.41;6101632;23;20462;-81
2023/04/07 02:32:06;;;;;;;44.90;19.73;;;;;;;42.61;34.00;100745.88;6101118;23;20312;-81
2023/04/07 02:34:32;;;;;;;36.20;17.13;;;;;;;42.61;34.03;100749.38;6101510;23;20390;-82
2023/04/07 02:36:58;;;;;;;28.87;12.43;;;;;;;42.54;34.39;100742.84;6100811;23;20429;-81
2023/04/07 02:39:24;;;;;;;27.93;12.00;;;;;;;42.50;34.16;100747.41;6101520;23;20469;-81
2023/04/07 02:41:50;;;;;;;47.13;23.43;;;;;;;42.57;34.29;100756.66;6101727;23;20851;-81
2023/04/07 02:47:19;;;;;;;46.70;16.30;;;;;;;42.63;33.94;100751.75;6127448;23;20424;-83
2023/04/07 02:49:45;;;;;;;36.87;15.67;;;;;;;42.53;33.42;100735.81;6104124;23;20866;-82
2023/04/07 02:52:11;;;;;;;21.13;9.30;;;;;;;42.61;33.46;100743.13;6101415;23;20158;-83
2023/04/07 02:54:37;;;;;;;22.97;9.40;;;;;;;42.55;33.77;100734.34;6101563;23;20398;-83
2023/04/07 02:57:03;;;;;;;17.60;6.50;;;;;;;42.49;33.49;100730.28;6100704;23;20390;-81
2023/04/07 02:59:29;;;;;;;19.10;11.83;;;;;;;42.45;33.12;100714.91;6100988;23;20177;-83
2023/04/07 03:01:55;;;;;;;26.27;12.10;;;;;;;42.44;33.30;100697.78;6101557;23;20240;-82
2023/04/07 03:04:21;;;;;;;17.83;10.20;;;;;;;42.54;33.48;100713.69;6101695;23;20390;-82
2023/04/07 03:06:47;;;;;;;22.70;9.47;;;;;;;42.46;33.78;100708.31;6101297;23;20420;-80
2023/04/07 03:09:13;;;;;;;28.23;9.67;;;;;;;42.57;33.26;100704.81;6101384;23;20382;-81
2023/04/07 03:11:40;;;;;;;31.33;11.13;;;;;;;42.69;33.40;100714.94;6101445;23;20202;-84
2023/04/07 03:14:07;;;;;;;22.47;10.13;;;;;;;42.33;33.44;100719.22;6101645;23;20929;-81
2023/04/07 03:16:33;;;;;;;21.73;9.57;;;;;;;42.43;33.52;100695.38;6101139;23;20438;-81
2023/04/07 03:18:59;;;;;;;18.60;10.30;;;;;;;42.49;33.82;100699.47;6100807;23;20387;-82
2023/04/07 03:21:27;;;;;;;29.30;11.10;;;;;;;42.60;34.02;100711.53;6101114;23;20954;-83
2023/04/07 03:23:54;;;;;;;23.53;9.23;;;;;;;42.54;33.96;100713.69;6101649;23;20383;-81
2023/04/07 03:26:20;;;;;;;23.07;7.47;;;;;;;42.50;34.20;100703.78;6100652;23;20424;-83
2023/04/07 03:28:46;;;;;;;26.77;9.30;;;;;;;42.60;34.11;100695.16;6101045;23;20382;-82
2023/04/07 03:31:12;;;;;;;21.67;9.20;;;;;;;42.63;34.39;100700.72;6100420;23;20393;-80
2023/04/07 03:33:38;;;;;;;15.90;6.80;;;;;;;42.61;34.24;100696.78;6100216;23;20437;-81
2023/04/07 03:36:05;;;;;;;20.83;8.37;;;;;;;42.53;34.47;100692.97;6100406;23;20378;-82
2023/04/07 03:38:31;;;;;;;22.13;8.90;;;;;;;42.28;35.25;100684.00;6098003;23;20382;-83
2023/04/07 03:40:56;;;;;;;15.27;8.17;;;;;;;42.21;34.66;100681.06;6101463;23;20382;-82
2023/04/07 03:43:28;;;;;;;18.33;7.10;;;;;;;42.19;34.85;100672.44;6100425;23;20503;-82
2023/04/07 03:45:54;;;;;;;20.90;7.20;;;;;;;42.08;35.07;100657.63;6078259;23;20418;-82
2023/04/07 03:48:20;;;;;;;24.03;8.27;;;;;;;42.12;35.02;100681.16;6101076;23;20714;-82
2023/04/07 03:50:46;;;;;;;16.70;6.33;;;;;;;41.99;35.29;100678.75;6100124;23;20393;-79
2023/04/07 03:53:15;;;;;;;18.07;6.60;;;;;;;42.13;35.17;100679.22;6100695;23;20426;-82
2023/04/07 03:55:42;;;;;;;17.40;6.97;;;;;;;42.06;35.62;100670.81;6101891;23;20158;-81
2023/04/07 03:58:09;;;;;;;21.80;6.60;;;;;;;42.19;35.20;100686.06;6100789;23;20386;-79
2023/04/07 04:00:35;;;;;;;18.43;6.70;;;;;;;42.17;35.28;100691.03;6100791;23;20473;-80
2023/04/07 04:03:02;;;;;;;16.17;6.40;;;;;;;42.11;35.22;100686.94;6100709;23;20386;-78
2023/04/07 04:05:28;;;;;;;23.37;7.10;;;;;;;42.12;35.22;100696.72;6100876;23;20386;-81
2023/04/07 04:07:54;;;;;;;15.63;5.93;;;;;;;42.20;35.31;100706.75;6100315;23;20378;-82
2023/04/07 04:10:20;;;;;;;26.93;7.43;;;;;;;42.08;35.03;100707.50;6076912;23;20465;-81
2023/04/07 04:12:47;;;;;;;21.87;7.43;;;;;;;42.20;34.39;100714.91;6100494;23;20457;-82
2023/04/07 04:15:14;;;;;;;21.27;5.60;;;;;;;42.09;34.61;100709.06;6100329;23;20417;-84
2023/04/07 04:17:40;;;;;;;15.00;5.77;;;;;;;42.15;34.52;100715.09;6100555;23;20461;-80
2023/04/07 04:20:10;;;;;;;23.67;8.07;;;;;;;42.19;34.55;100723.44;6101565;23;20386;-80
2023/04/07 04:22:36;;;;;;;24.83;7.87;;;;;;;42.08;34.52;100731.22;6100101;23;20386;-81
2023/04/07 04:25:02;;;;;;;20.53;6.20;;;;;;;42.09;34.17;100730.88;6101204;23;20784;-81
2023/04/07 04:27:28;;;;;;;18.33;6.97;;;;;;;42.00;34.60;100743.81;6100487;23;20417;-83
2023/04/07 04:29:57;;;;;;;18.80;6.57;;;;;;;42.04;34.89;100735.75;6100393;23;20386;-82
2023/04/07 04:32:23;;;;;;;15.93;6.57;;;;;;;42.17;34.17;100736.59;6100193;23;20232;-80
2023/04/07 04:34:49;;;;;;;18.87;7.00;;;;;;;42.03;34.60;100739.59;6101102;23;20483;-82
2023/04/07 04:37:15;;;;;;;20.73;6.43;;;;;;;42.00;34.50;100727.47;6100368;23;20207;-79
2023/04/07 04:39:41;;;;;;;27.07;6.33;;;;;;;42.01;34.73;100720.09;6099915;23;20401;-80
2023/04/07 04:42:07;;;;;;;25.40;9.40;;;;;;;42.05;34.77;100726.44;6099798;23;20394;-81
2023/04/07 04:44:33;;;;;;;19.03;6.43;;;;;;;41.88;34.87;100726.66;6099482;23;20410;-83
2023/04/07 04:46:59;;;;;;;21.97;7.40;;;;;;;42.01;34.69;100731.78;6099763;23;20173;-83
2023/04/07 04:49:25;;;;;;;33.73;6.73;;;;;;;42.07;35.34;100727.69;6100257;23;20497;-81
2023/04/07 04:51:51;;;;;;;13.60;6.23;;;;;;;41.91;35.53;100745.81;6100234;23;20422;-82
2023/04/07 04:54:18;;;;;;;19.10;8.70;;;;;;;42.05;35.41;100748.22;6100872;23;20434;-83
2023/04/07 04:56:44;;;;;;;20.87;7.87;;;;;;;41.85;35.38;100737.06;6100155;23;20441;-82
2023/04/07 04:59:10;;;;;;;26.23;8.83;;;;;;;42.01;35.49;100748.13;6100517;23;20394;-81
2023/04/07 05:01:36;;;;;;;20.30;6.60;;;;;;;41.83;36.22;100744.78;6099978;23;20733;-81
2023/04/07 05:04:02;;;;;;;19.67;6.30;;;;;;;41.75;36.02;100747.63;6099891;23;20226;-82
2023/04/07 05:06:28;;;;;;;14.73;5.10;;;;;;;41.52;35.66;100733.53;6100282;23;20386;-81
2023/04/07 05:08:54;;;;;;;18.20;6.43;;;;;;;41.46;36.03;100740.31;6125973;23;20469;-80
2023/04/07 05:11:20;;;;;;;20.70;7.60;;;;;;;41.53;36.27;100743.28;6099947;23;20409;-83
2023/04/07 05:13:47;;;;;;;15.53;6.53;;;;;;;41.68;35.93;100750.03;6100244;23;20446;-80
2023/04/07 05:16:12;;;;;;;25.83;6.80;;;;;;;41.83;36.02;100742.06;6099372;23;20438;-82
2023/04/07 05:18:38;;;;;;;23.10;6.20;;;;;;;41.92;35.41;100752.88;6099829;23;20441;-83
2023/04/07 05:21:04;;;;;;;14.43;5.17;;;;;;;41.79;35.29;100759.41;6099485;23;20390;-82
2023/04/07 05:23:30;;;;;;;33.50;20.20;;;;;;;41.95;35.40;100759.59;6100437;23;20729;-82
2023/04/07 05:25:56;;;;;;;49.10;29.80;;;;;;;42.06;35.42;100766.19;6100308;23;20413;-81
2023/04/07 05:28:23;;;;;;;37.53;25.57;;;;;;;42.10;35.03;100753.47;6099382;23;20388;-81
2023/04/07 05:30:49;;;;;;;31.30;17.40;;;;;;;42.25;35.02;100768.41;6101312;23;20382;-80
2023/04/07 05:33:15;;;;;;;21.50;14.03;;;;;;;42.24;34.91;100767.63;6100191;23;20438;-84
2023/04/07 05:35:44;;;;;;;25.73;12.37;;;;;;;42.25;34.70;100773.88;6076053;23;20733;-83
2023/04/07 05:38:10;;;;;;;24.70;15.23;;;;;;;42.26;34.90;100770.00;6100156;23;20382;-81
2023/04/07 05:40:36;;;;;;;33.80;13.07;;;;;;;42.26;34.44;100768.06;6100171;23;20416;-81
2023/04/07 05:43:04;;;;;;;24.57;11.30;;;;;;;42.08;34.29;100759.28;6101115;23;20386;-85
2023/04/07 05:45:36;;;;;;;20.77;9.67;;;;;;;42.19;34.47;100775.22;6078247;23;20425;-83
2023/04/07 05:48:03;;;;;;;13.47;6.20;;;;;;;42.07;34.64;100776.75;6102694;23;20768;-85
2023/04/07 05:50:35;;;;;;;16.53;8.50;;;;;;;41.93;34.90;100751.75;6126084;23;20852;-85
2023/04/07 05:53:01;;;;;;;19.07;7.93;;;;;;;41.91;34.90;100755.94;6078865;23;20434;-84
2023/04/07 05:55:28;;;;;;;17.20;6.60;;;;;;;42.02;34.63;100776.97;6125852;23;20382;-83
2023/04/07 05:57:54;;;;;;;19.23;7.37;;;;;;;41.92;34.04;100771.13;6102071;23;20382;-82
2023/04/07 06:00:20;;;;;;;20.63;6.33;;;;;;;41.68;34.43;100756.31;6102220;23;20505;-81
2023/04/07 06:02:47;;;;;;;10.20;4.77;;;;;;;41.73;34.65;100769.69;6102692;23;20176;-84
2023/04/07 06:05:17;;;;;;;15.90;9.23;;;;;;;41.75;34.96;100758.50;6104752;23;20852;-82
2023/04/07 06:07:47;;;;;;;18.33;6.00;;;;;;;41.50;35.01;100739.31;6103808;23;20880;-80
2023/04/07 06:10:35;;;;;;;17.13;5.43;;;;;;;41.48;35.12;100732.59;6107770;23;20374;-84
2023/04/07 06:13:01;;;;;;;15.80;6.60;;;;;;;41.76;35.08;100768.28;6102015;23;20434;-82
2023/04/07 06:15:29;;;;;;;16.83;6.03;;;;;;;41.80;34.58;100778.13;6101777;23;20396;-85
2023/04/07 06:18:01;;;;;;;13.30;4.33;;;;;;;41.66;34.45;100763.19;6079864;23;20288;-82
2023/04/07 06:20:39;;;;;;;16.33;5.03;;;;;;;41.80;34.58;100761.78;6101062;23;20402;-85
2023/04/07 06:23:28;;;;;;;17.17;6.10;;;;;;;41.78;34.45;100774.16;6103790;23;20744;-86
2023/04/07 06:26:00;;;;;;;15.10;3.93;;;;;;;41.86;33.59;100776.78;6100824;23;20389;-86
2023/04/07 06:28:26;;;;;;;27.37;6.33;;;;;;;41.55;34.30;100779.16;6097552;23;20386;-83
2023/04/07 06:30:52;;;;;;;13.50;6.00;;;;;;;41.77;34.05;100769.84;6102739;23;20382;-83
2023/04/07 06:33:24;;;;;;;15.77;4.80;;;;;;;41.94;33.63;100758.00;6101242;23;20504;-83
2023/04/07 06:35:51;;;;;;;16.20;6.50;;;;;;;41.93;33.42;100740.03;6101569;23;20413;-85
2023/04/07 06:38:19;;;;;;;18.73;7.23;;;;;;;41.87;33.64;100739.47;6100412;23;20390;-85
2023/04/07 06:40:45;;;;;;;20.93;6.20;;;;;;;42.08;33.65;100780.28;6101247;23;20398;-84
2023/04/07 06:43:14;;;;;;;14.90;5.73;;;;;;;42.09;33.57;100784.59;6101646;23;20378;-85
2023/04/07 06:45:41;;;;;;;14.47;5.23;;;;;;;42.17;33.61;100791.91;6102207;23;20464;-83
2023/04/07 06:48:09;;;;;;;13.50;5.27;;;;;;;42.09;34.00;100796.28;6101883;23;20394;-85
2023/04/07 06:50:42;;;;;;;16.90;6.50;;;;;;;42.20;33.97;100796.69;6101603;23;20855;-84
2023/04/07 06:53:13;;;;;;;21.23;7.70;;;;;;;42.17;34.10;100807.47;6079278;23;20437;-87
2023/04/07 06:55:43;;;;;;;18.20;5.47;;;;;;;42.02;33.92;100795.25;6127374;23;20406;-85
2023/04/07 06:58:10;;;;;;;23.30;5.27;;;;;;;42.33;33.99;100798.28;6125626;23;20383;-85
2023/04/07 07:00:36;;;;;;;17.87;7.90;;;;;;;42.35;34.08;100798.75;6100611;23;20397;-84
2023/04/07 07:03:03;;;;;;;12.53;5.40;;;;;;;42.37;34.05;100801.94;6098043;23;20385;-85
2023/04/07 07:05:38;;;;;;;23.60;8.40;;;;;;;42.22;34.21;100785.44;6127188;23;20378;-85
2023/04/07 07:08:04;;;;;;;16.77;5.97;;;;;;;42.12;34.47;100794.84;6098993;23;20402;-85
2023/04/07 07:10:44;;;;;;;16.80;6.23;;;;;;;42.20;34.64;100777.59;6127626;23;20453;-87
2023/04/07 07:13:10;;;;;;;23.53;8.17;;;;;;;42.38;34.64;100792.63;6100959;23;20425;-84
2023/04/07 07:15:42;;;;;;;15.97;5.07;;;;;;;42.49;34.24;100789.47;6125713;23;20390;-82
2023/04/07 07:18:13;;;;;;;15.37;5.60;;;;;;;42.40;34.24;100800.47;6112764;23;20440;-83
2023/04/07 07:20:46;;;;;;;20.40;7.07;;;;;;;42.15;34.34;100780.50;6077042;23;20453;-84
2023/04/07 07:23:22;;;;;;;17.33;6.93;;;;;;;42.20;34.49;100799.41;6119853;23;20409;-83
2023/04/07 07:25:56;;;;;;;24.47;7.10;;;;;;;42.35;34.48;100817.81;6125192;23;20441;-84
2023/04/07 07:28:24;;;;;;;14.83;6.53;;;;;;;42.34;34.54;100829.09;6102011;23;20390;-84
2023/04/07 07:30:54;;;;;;;18.00;8.73;;;;;;;42.51;34.78;100831.63;6101411;23;20397;-84
2023/04/07 07:33:21;;;;;;;15.50;6.27;;;;;;;42.38;35.03;100838.19;6101223;23;20437;-86
2023/04/07 07:35:48;;;;;;;23.43;7.03;;;;;;;42.53;34.49;100842.19;6125277;23;20390;-83
2023/04/07 07:38:14;;;;;;;19.17;5.30;;;;;;;42.48;33.84;100831.47;6101081;23;20703;-83
2023/04/07 07:40:40;;;;;;;24.33;9.30;;;;;;;42.43;34.18;100820.81;6100954;23;20382;-82
2023/04/07 07:43:06;;;;;;;12.80;5.90;;;;;;;42.58;33.74;100848.25;6101413;23;20437;-81
2023/04/07 07:45:32;;;;;;;20.83;7.10;;;;;;;42.48;33.88;100850.56;6101009;23;20213;-81
2023/04/07 07:47:58;;;;;;;18.87;5.73;;;;;;;42.40;33.79;100858.50;6127250;23;20385;-81
2023/04/07 07:50:24;;;;;;;17.13;7.40;;;;;;;42.65;33.49;100874.94;6101144;23;20394;-82
2023/04/07 07:52:50;;;;;;;13.23;5.90;;;;;;;42.68;33.49;100877.03;6076945;23;20426;-83
2023/04/07 07:55:15;;;;;;;13.80;6.77;;;;;;;42.74;33.13;100874.88;6100284;23;20417;-83
2023/04/07 07:57:41;;;;;;;14.47;6.40;;;;;;;42.64;33.08;100878.81;6100450;23;20405;-83
2023/04/07 08:00:08;;;;;;;15.17;6.53;;;;;;;42.61;33.40;100876.78;6100843;23;20611;-84
2023/04/07 08:02:35;;;;;;;23.83;7.47;;;;;;;42.77;33.14;100888.59;6127121;23;20446;-82
2023/04/07 08:05:01;;;;;;;21.77;7.67;;;;;;;42.72;33.09;100888.03;6100596;23;20429;-82
2023/04/07 08:07:27;;;;;;;26.73;7.20;;;;;;;42.65;33.56;100889.38;6100721;23;20390;-83
2023/04/07 08:09:53;;;;;;;19.17;8.03;;;;;;;42.62;33.63;100884.63;6100660;23;20440;-85
2023/04/07 08:12:19;;;;;;;22.90;7.67;;;;;;;42.51;34.06;100874.47;6101193;23;20410;-86
2023/04/07 08:14:45;;;;;;;15.47;6.40;;;;;;;42.90;33.33;100912.03;6100867;23;20406;-82
2023/04/07 08:17:11;;;;;;;24.43;6.67;;;;;;;42.97;33.52;100910.69;6128342;23;20350;-82
2023/04/07 08:19:37;;;;;;;15.70;5.67;;;;;;;42.85;33.38;100911.50;6129751;23;20859;-82
2023/04/07 08:22:03;;;;;;;19.40;6.40;;;;;;;42.80;33.75;100917.16;6130325;23;20448;-82
2023/04/07 08:24:29;;;;;;;19.70;7.70;;;;;;;42.89;34.10;100929.56;6129933;23;20843;-82
2023/04/07 08:26:55;;;;;;;29.80;10.00;;;;;;;42.83;34.50;100930.91;6129908;23;20750;-83
2023/04/07 08:29:21;;;;;;;13.17;5.70;;;;;;;42.86;34.00;100927.50;6129947;23;20413;-83
2023/04/07 08:31:47;;;;;;;17.70;7.40;;;;;;;42.87;33.60;100918.19;6129420;23;20789;-82
2023/04/07 08:34:13;;;;;;;12.03;5.20;;;;;;;42.95;33.85;100940.25;6129015;23;20949;-82
2023/04/07 08:36:40;;;;;;;17.53;6.47;;;;;;;42.77;34.34;100926.00;6129746;23;20177;-83
2023/04/07 08:39:08;;;;;;;19.00;7.00;;;;;;;42.94;34.63;100939.47;6129535;23;20382;-82
2023/04/07 08:41:43;;;;;;;12.10;5.20;;;;;;;42.86;34.37;100941.16;6105787;23;20475;-84
2023/04/07 08:44:10;;;;;;;12.70;5.37;;;;;;;42.86;34.54;100943.88;6130427;23;20391;-83
2023/04/07 08:46:39;;;;;;;16.80;7.03;;;;;;;42.88;34.68;100949.00;6105199;23;20445;-83
2023/04/07 08:49:12;;;;;;;22.17;6.97;;;;;;;42.91;34.53;100940.16;6129304;23;20385;-83
2023/04/07 08:51:46;;;;;;;18.20;7.23;;;;;;;42.93;34.74;100949.56;6129745;23;20444;-84
2023/04/07 08:54:21;;;;;;;13.23;5.93;;;;;;;43.03;34.74;100942.09;6130462;23;20484;-80
2023/04/07 08:56:50;;;;;;;14.57;6.57;;;;;;;43.07;34.46;100945.75;6155777;23;20361;-82
2023/04/07 08:59:21;;;;;;;28.23;7.03;;;;;;;42.97;34.74;100949.72;6129225;23;20480;-82
2023/04/07 09:01:49;;;;;;;22.93;8.40;;;;;;;43.00;34.88;100948.25;6130070;23;20884;-83
2023/04/07 09:04:16;;;;;;;20.43;6.90;;;;;;;43.14;34.59;100946.78;6129284;23;20392;-82
2023/04/07 09:06:44;;;;;;;29.70;9.07;;;;;;;43.04;34.87;100930.06;6155684;23;20377;-84
2023/04/07 09:09:10;;;;;;;17.27;5.63;;;;;;;43.10;34.44;100939.63;6105595;23;20393;-84
2023/04/07 09:11:41;;;;;;;21.80;7.37;;;;;;;43.14;34.50;100943.25;6129226;23;20427;-83
2023/04/07 09:14:07;;;;;;;25.23;6.70;;;;;;;42.87;34.90;100940.00;6105442;23;20562;-83
2023/04/07 09:16:33;;;;;;;19.00;6.23;;;;;;;42.93;34.97;100940.59;6128927;23;20772;-85
2023/04/07 09:18:59;;;;;;;14.00;5.50;;;;;;;42.90;34.97;100936.59;6105662;23;20949;-82
2023/04/07 09:21:26;;;;;;;20.30;6.97;;;;;;;43.06;35.23;100925.84;6099980;23;20727;-81
2023/04/07 09:23:52;;;;;;;17.30;6.60;;;;;;;42.89;34.96;100935.00;6100120;23;21004;-82
2023/04/07 09:26:19;;;;;;;18.43;6.70;;;;;;;42.82;35.54;100940.22;6100185;23;20458;-82
2023/04/07 09:28:46;;;;;;;26.03;7.70;;;;;;;42.95;35.08;100927.41;6126218;23;20386;-84
2023/04/07 09:31:13;;;;;;;14.50;7.20;;;;;;;42.87;35.12;100937.28;6100560;23;20473;-85
2023/04/07 09:33:40;;;;;;;20.10;7.90;;;;;;;42.95;34.96;100921.16;6099493;23;20910;-82
2023/04/07 09:36:06;;;;;;;31.93;8.10;;;;;;;42.74;35.11;100924.78;6099885;23;20401;-84
2023/04/07 09:38:37;;;;;;;17.10;7.07;;;;;;;42.73;34.58;100925.13;6100117;23;20397;-85
2023/04/07 09:41:10;;;;;;;12.20;4.40;;;;;;;42.95;34.72;100929.34;6099783;23;20456;-82
2023/04/07 09:43:43;;;;;;;13.83;5.20;;;;;;;42.62;34.41;100927.47;6100211;23;20382;-84
2023/04/07 09:46:19;;;;;;;14.00;5.07;;;;;;;42.68;35.04;100931.56;6100212;23;20386;-85
2023/04/07 09:48:45;;;;;;;19.60;7.23;;;;;;;42.37;35.44;100932.03;6099894;23;20389;-83
2023/04/07 09:51:17;;;;;;;24.20;6.93;;;;;;;42.72;34.86;100918.03;6100264;23;20389;-83
2023/04/07 09:53:48;;;;;;;24.43;6.73;;;;;;;42.60;35.00;100903.28;6124903;23;20429;-82
2023/04/07 09:56:16;;;;;;;26.23;5.83;;;;;;;42.45;35.74;100914.78;6099986;23;20498;-83
2023/04/07 09:58:46;;;;;;;16.57;4.87;;;;;;;42.58;35.48;100921.88;6100097;23;20390;-82
2023/04/07 10:01:13;;;;;;;15.40;5.50;;;;;;;42.50;35.48;100921.97;6100638;23;20728;-83
2023/04/07 10:03:43;;;;;;;15.43;5.33;;;;;;;42.73;35.10;100922.38;6100035;23;20394;-83
2023/04/07 10:06:10;;;;;;;26.57;7.50;;;;;;;42.52;35.60;100908.78;6076888;23;20405;-82
2023/04/07 10:08:40;;;;;;;13.50;5.67;;;;;;;42.73;35.34;100911.47;6100201;23;20882;-83
2023/04/07 10:11:07;;;;;;;19.93;7.30;;;;;;;43.02;35.02;100916.75;6099851;23;20730;-81
2023/04/07 10:13:36;;;;;;;13.70;6.43;;;;;;;42.98;34.94;100929.50;6052181;23;20445;-84
2023/04/07 10:16:06;;;;;;;25.97;7.87;;;;;;;43.09;34.72;100929.81;6099299;23;20456;-82
2023/04/07 10:18:34;;;;;;;24.33;6.13;;;;;;;42.94;34.97;100920.34;6099671;23;20768;-80
2023/04/07 10:21:09;;;;;;;21.57;7.63;;;;;;;42.98;34.68;100926.75;6099739;23;20386;-82
2023/04/07 10:23:58;;;;;;;23.10;7.40;;;;;;;42.84;34.66;100927.03;6100168;23;20399;-81
2023/04/07 10:26:30;;;;;;;16.70;7.17;;;;;;;42.88;34.51;100930.69;6099627;23;20783;-82
2023/04/07 10:29:04;;;;;;;20.83;5.40;;;;;;;42.87;34.71;100928.31;6100667;23;20378;-82
2023/04/07 10:31:31;;;;;;;17.33;5.47;;;;;;;42.95;34.66;100921.16;6101468;23;20880;-84
2023/04/07 10:33:57;;;;;;;11.40;5.07;;;;;;;42.67;35.26;100924.53;6100506;23;20445;-84
2023/04/07 10:36:23;;;;;;;17.50;4.77;;;;;;;42.67;35.03;100918.28;6101475;23;20440;-84
2023/04/07 10:39:07;;;;;;;15.87;6.17;;;;;;;43.06;34.87;100911.41;6101606;23;20409;-84
2023/04/07 10:41:40;;;;;;;16.67;8.83;;;;;;;43.08;34.79;100904.47;6101544;23;20414;-83
2023/04/07 10:44:09;;;;;;;17.30;5.10;;;;;;;43.06;34.71;100914.94;6101726;23;20392;-82
2023/04/07 10:46:44;;;;;;;14.37;7.40;;;;;;;43.13;35.00;100917.09;6101680;23;20468;-82
2023/04/07 10:49:12;;;;;;;14.70;6.70;;;;;;;43.16;34.88;100913.69;6101598;23;20738;-80
2023/04/07 10:51:38;;;;;;;18.63;5.60;;;;;;;43.00;34.73;100913.56;6100845;23;20409;-81
2023/04/07 10:54:22;;;;;;;22.53;7.03;;;;;;;43.03;34.83;100903.88;6101447;23;20429;-82
2023/04/07 10:57:12;;;;;;;20.80;5.97;;;;;;;42.93;34.68;100905.13;6102068;23;20871;-82
2023/04/07 11:00:15;;;;;;;17.43;6.97;;;;;;;42.87;34.62;100888.16;6101504;23;20386;-82
2023/04/07 11:02:41;;;;;;;12.90;6.17;;;;;;;43.17;33.89;100887.97;6101768;23;20408;-82
2023/04/07 11:05:07;;;;;;;19.63;5.83;;;;;;;42.93;34.00;100881.34;6101405;23;20449;-83
2023/04/07 11:07:57;;;;;;;19.73;6.43;;;;;;;43.29;34.32;100885.25;6077513;23;20396;-84
2023/04/07 11:10:23;;;;;;;14.23;5.43;;;;;;;43.01;33.54;100889.78;6075575;23;20405;-82
2023/04/07 11:13:09;;;;;;;18.93;5.87;;;;;;;43.04;33.70;100897.31;6101231;23;20433;-81
2023/04/07 11:15:36;;;;;;;15.93;4.73;;;;;;;43.14;33.40;100885.91;6097840;23;20385;-83
2023/04/07 11:18:06;;;;;;;23.17;7.03;;;;;;;43.01;33.84;100873.41;6100739;23;20437;-80
2023/04/07 11:20:58;;;;;;;31.03;5.03;;;;;;;43.34;33.19;100889.66;6100986;23;20382;-85
2023/04/07 11:23:26;;;;;;;17.43;7.30;;;;;;;43.03;33.40;100880.16;6102369;23;20414;-84
2023/04/07 11:26:14;;;;;;;15.13;6.93;;;;;;;43.23;33.33;100872.16;6101447;23;20469;-85
2023/04/07 11:28:57;;;;;;;20.47;7.50;;;;;;;43.19;33.87;100870.09;6100372;23;20386;-85